Time;durP1;ratioP1;P1;durP2;ratioP2;P2;SDS_P1;SDS_P2;PMS_P1;PMS_P2;Temp;Humidity;BMP_temperature;BMP_pressure;BME280_temperature;BME280_humidity;BME280_pressure;Samples;Min_cycle;Max_cycle;Signal;HPM_P1;HPM_P2
2023/12/13 00:01:38;;;;;;;3.55;3.35;;;12.30;99.90;;;;;;5075465;28;20047;-93
2023/12/13 00:04:04;;;;;;;3.47;3.28;;;12.40;99.90;;;;;;5093721;28;20116;-93
2023/12/13 00:06:30;;;;;;;3.92;3.72;;;11.70;99.90;;;;;;5077332;28;20042;-94
2023/12/13 00:08:56;;;;;;;3.85;3.65;;;11.70;99.90;;;;;;5078097;28;20055;-94
2023/12/13 00:11:22;;;;;;;3.65;3.45;;;12.30;99.90;;;;;;5070179;28;20048;-93
2023/12/13 00:13:48;;;;;;;3.35;3.15;;;12.30;99.90;;;;;;5069424;28;20044;-93
2023/12/13 00:16:18;;;;;;;3.85;3.65;;;12.60;99.90;;;;;;5093591;28;20520;-94
2023/12/13 00:18:46;;;;;;;3.75;3.55;;;12.20;99.90;;;;;;5074478;28;20129;-92
2023/12/13 00:21:13;;;;;;;3.40;3.20;;;12.50;99.90;;;;;;5075474;28;20079;-93
2023/12/13 00:23:39;;;;;;;3.63;3.42;;;11.80;99.90;;;;;;5074422;28;20043;-93
2023/12/13 00:26:04;;;;;;;3.58;3.38;;;12.60;99.90;;;;;;5075559;28;20042;-93
2023/12/13 00:28:30;;;;;;;3.58;3.38;;;12.20;99.90;;;;;;5074738;28;20038;-94
2023/12/13 00:30:56;;;;;;;3.50;3.30;;;11.50;99.90;;;;;;5073719;28;20048;-93
2023/12/13 00:33:22;;;;;;;3.45;3.25;;;11.60;99.90;;;;;;5090615;28;20089;-94
2023/12/13 00:35:47;;;;;;;3.38;3.17;;;12.20;99.90;;;;;;5090564;28;20055;-93
2023/12/13 00:38:25;;;;;;;3.42;3.22;;;11.50;99.90;;;;;;5076245;28;20243;-95
2023/12/13 00:41:00;;;;;;;3.33;3.13;;;12.20;99.90;;;;;;5093366;28;20036;-94
2023/12/13 00:43:26;;;;;;;3.35;3.15;;;11.90;99.90;;;;;;5075562;28;20043;-93
2023/12/13 00:45:52;;;;;;;3.35;3.15;;;11.60;99.90;;;;;;5073445;28;20043;-93
2023/12/13 00:48:20;;;;;;;3.67;3.47;;;11.70;99.90;;;;;;5075187;28;20044;-94
2023/12/13 00:50:49;;;;;;;3.55;3.35;;;12.50;99.90;;;;;;5072736;28;20048;-93
2023/12/13 00:53:15;;;;;;;3.42;3.22;;;12.20;99.90;;;;;;5075230;28;20634;-93
2023/12/13 00:55:44;;;;;;;3.45;3.25;;;11.70;99.90;;;;;;5077430;28;20046;-94
2023/12/13 00:58:09;;;;;;;3.28;3.08;;;11.80;99.90;;;;;;5090081;28;20040;-93
2023/12/13 01:00:35;;;;;;;3.58;3.38;;;12.50;99.90;;;;;;5074209;28;20043;-93
2023/12/13 01:03:04;;;;;;;3.42;3.22;;;12.30;99.90;;;;;;5075558;28;20076;-92
2023/12/13 01:05:32;;;;;;;3.35;3.15;;;12.30;99.90;;;;;;5090698;28;20043;-93
2023/12/13 01:08:01;;;;;;;3.67;3.47;;;11.60;99.90;;;;;;5092527;28;20043;-94
2023/12/13 01:10:26;;;;;;;3.55;3.35;;;12.30;99.90;;;;;;5074794;28;20489;-93
2023/12/13 01:12:53;;;;;;;3.50;3.30;;;11.60;99.90;;;;;;5073966;28;20072;-94
2023/12/13 01:15:20;;;;;;;3.65;3.45;;;11.90;99.90;;;;;;5075372;28;20090;-93
2023/12/13 01:17:46;;;;;;;3.47;3.28;;;12.40;99.90;;;;;;5072956;28;20051;-94
2023/12/13 01:20:11;;;;;;;3.75;3.55;;;11.80;99.90;;;;;;5082371;28;20035;-93
2023/12/13 01:22:37;;;;;;;3.38;3.17;;;12.20;99.90;;;;;;5074041;28;20044;-92
2023/12/13 01:25:03;;;;;;;3.78;3.58;;;11.70;99.90;;;;;;5075443;28;20493;-93
2023/12/13 01:27:30;;;;;;;3.58;3.38;;;11.80;99.90;;;;;;5075605;28;20047;-93
2023/12/13 01:29:55;;;;;;;3.63;3.42;;;12.50;99.90;;;;;;5093282;28;20039;-94
2023/12/13 01:32:21;;;;;;;3.20;3.00;;;11.70;99.90;;;;;;5070750;28;20077;-92
2023/12/13 01:34:50;;;;;;;3.28;3.08;;;11.80;99.90;;;;;;5085941;28;20476;-94
2023/12/13 01:37:15;;;;;;;3.60;3.40;;;11.60;99.90;;;;;;5068970;28;20048;-94
2023/12/13 01:39:44;;;;;;;3.45;3.25;;;12.00;99.90;;;;;;5070006;28;20040;-94
2023/12/13 01:42:12;;;;;;;3.47;3.28;;;12.20;99.90;;;;;;5068719;28;20044;-94
2023/12/13 01:44:41;;;;;;;3.53;3.33;;;11.60;99.90;;;;;;5088676;28;20120;-93
2023/12/13 01:47:07;;;;;;;3.60;3.40;;;11.60;99.90;;;;;;5089728;28;20092;-93
2023/12/13 01:49:33;;;;;;;3.08;2.90;;;11.50;99.90;;;;;;5075693;28;20047;-94
2023/12/13 01:51:59;;;;;;;3.60;3.40;;;11.50;99.90;;;;;;5092732;28;20036;-95
2023/12/13 01:54:25;;;;;;;3.88;3.67;;;11.90;99.90;;;;;;5089840;28;20043;-94
2023/12/13 01:56:52;;;;;;;3.35;3.15;;;11.70;99.90;;;;;;5071815;28;20036;-94
2023/12/13 01:59:21;;;;;;;3.28;3.08;;;12.10;99.90;;;;;;5091808;28;20496;-94
2023/12/13 02:01:52;;;;;;;3.20;3.00;;;11.40;99.90;;;;;;5074339;28;20404;-94
2023/12/13 02:04:20;;;;;;;3.55;3.35;;;12.20;99.90;;;;;;5073689;28;20511;-93
2023/12/13 02:06:46;;;;;;;3.45;3.25;;;11.80;99.90;;;;;;5092901;28;20078;-93
2023/12/13 02:09:14;;;;;;;3.40;3.20;;;12.20;99.90;;;;;;5091629;28;20070;-94
2023/12/13 02:11:45;;;;;;;3.38;3.17;;;12.10;99.90;;;;;;5073213;28;20046;-94
2023/12/13 02:14:11;;;;;;;3.03;2.85;;;12.00;99.90;;;;;;5090294;28;20050;-94
2023/12/13 02:16:37;;;;;;;3.25;3.05;;;12.30;99.90;;;;;;5072466;28;20079;-95
2023/12/13 02:19:08;;;;;;;3.47;3.28;;;11.50;99.90;;;;;;5077604;28;20136;-93
2023/12/13 02:21:42;;;;;;;3.80;3.60;;;12.10;99.90;;;;;;5080560;28;20063;-95
2023/12/13 02:24:11;;;;;;;3.20;3.00;;;11.40;99.90;;;;;;5075088;28;20048;-94
2023/12/13 02:26:45;;;;;;;3.53;3.33;;;12.10;99.90;;;;;;5094406;28;20047;-95
2023/12/13 02:29:15;;;;;;;3.45;3.25;;;12.20;99.90;;;;;;5077074;28;20128;-93
2023/12/13 02:31:44;;;;;;;3.22;3.03;;;11.60;99.90;;;;;;5078875;28;20039;-94
2023/12/13 02:34:15;;;;;;;3.50;3.30;;;11.50;99.90;;;;;;5093753;28;20122;-94
2023/12/13 02:36:57;;;;;;;3.80;3.60;;;11.40;99.90;;;;;;5077446;28;20040;-94
2023/12/13 02:39:23;;;;;;;3.50;3.30;;;12.30;99.90;;;;;;5078354;28;20043;-94
2023/12/13 02:41:52;;;;;;;3.53;3.33;;;11.50;99.90;;;;;;5079189;28;20088;-94
2023/12/13 02:44:20;;;;;;;3.65;3.45;;;11.70;99.90;;;;;;5094926;28;20043;-94
2023/12/13 02:46:49;;;;;;;3.53;3.33;;;11.60;99.90;;;;;;5078868;28;20048;-94
2023/12/13 02:49:15;;;;;;;3.42;3.22;;;12.10;99.90;;;;;;5078292;28;20160;-94
2023/12/13 02:51:46;;;;;;;3.40;3.20;;;11.70;99.90;;;;;;5079421;28;20536;-94
2023/12/13 02:54:12;;;;;;;3.38;3.17;;;12.30;99.90;;;;;;5078667;28;20043;-94
2023/12/13 02:56:37;;;;;;;3.53;3.33;;;12.30;99.90;;;;;;5076433;28;20497;-94
2023/12/13 02:59:06;;;;;;;3.70;3.50;;;11.90;99.90;;;;;;5076920;28;20091;-94
2023/12/13 03:01:31;;;;;;;3.63;3.42;;;12.00;99.90;;;;;;5078186;28;20039;-94
2023/12/13 03:03:57;;;;;;;3.33;3.13;;;12.00;99.90;;;;;;5077203;28;20043;-94
2023/12/13 03:06:23;;;;;;;3.92;3.72;;;12.20;99.90;;;;;;5076592;28;20067;-94
2023/12/13 03:08:49;;;;;;;3.40;3.20;;;12.00;99.90;;;;;;5093994;28;20050;-94
2023/12/13 03:11:15;;;;;;;3.63;3.42;;;11.60;99.90;;;;;;5077659;28;20696;-94
2023/12/13 03:13:44;;;;;;;3.65;3.45;;;12.20;99.90;;;;;;5078589;28;20087;-94
2023/12/13 03:16:12;;;;;;;3.75;3.55;;;12.40;99.90;;;;;;5074746;28;20056;-94
2023/12/13 03:18:38;;;;;;;3.47;3.28;;;11.80;99.90;;;;;;5078328;28;20557;-93
2023/12/13 03:21:04;;;;;;;3.47;3.28;;;11.90;99.90;;;;;;5079568;28;20044;-94
2023/12/13 03:23:30;;;;;;;3.53;3.33;;;11.50;99.90;;;;;;5082215;28;20043;-93
2023/12/13 03:25:56;;;;;;;3.60;3.40;;;12.40;99.90;;;;;;5076447;28;20101;-94
2023/12/13 03:28:28;;;;;;;3.50;3.30;;;12.10;99.90;;;;;;5077924;28;20075;-95
2023/12/13 03:30:54;;;;;;;3.67;3.47;;;11.50;99.90;;;;;;5073447;28;20039;-94
2023/12/13 03:33:19;;;;;;;3.60;3.40;;;12.30;99.90;;;;;;5075692;28;20046;-94
2023/12/13 03:35:50;;;;;;;3.67;3.47;;;12.10;99.90;;;;;;5094944;28;20177;-94
2023/12/13 03:38:18;;;;;;;3.25;3.05;;;11.70;99.90;;;;;;5077611;28;20055;-95
2023/12/13 03:40:44;;;;;;;3.50;3.30;;;12.30;99.90;;;;;;5092922;28;20124;-94
2023/12/13 03:43:13;;;;;;;3.58;3.38;;;11.60;99.90;;;;;;5076719;28;20101;-95
2023/12/13 03:45:39;;;;;;;3.53;3.33;;;11.60;99.90;;;;;;5079010;28;20074;-94
2023/12/13 03:48:08;;;;;;;3.38;3.17;;;11.70;99.90;;;;;;5079798;28;20043;-95
2023/12/13 03:50:41;;;;;;;3.47;3.28;;;11.90;99.90;;;;;;5075433;28;20051;-93
2023/12/13 03:53:07;;;;;;;3.65;3.45;;;11.80;99.90;;;;;;5076841;28;20039;-93
2023/12/13 03:55:34;;;;;;;3.97;3.78;;;11.90;99.90;;;;;;5081450;28;20042;-93
2023/12/13 03:57:59;;;;;;;3.78;3.58;;;12.10;99.90;;;;;;5096957;28;20058;-93
2023/12/13 04:00:26;;;;;;;4.03;3.83;;;11.90;99.90;;;;;;5094150;28;20080;-94
2023/12/13 04:02:51;;;;;;;3.58;3.38;;;12.10;99.90;;;;;;5094555;28;20047;-92
2023/12/13 04:05:17;;;;;;;3.60;3.40;;;12.10;99.90;;;;;;5097887;28;20044;-93
2023/12/13 04:07:43;;;;;;;3.92;3.72;;;11.60;99.90;;;;;;5111416;28;20036;-93
2023/12/13 04:10:09;;;;;;;3.83;3.63;;;12.00;99.90;;;;;;5097352;28;20057;-92
2023/12/13 04:12:34;;;;;;;3.47;3.28;;;12.40;99.90;;;;;;5096356;28;20032;-93
2023/12/13 04:15:03;;;;;;;3.63;3.42;;;11.80;99.90;;;;;;5094067;28;20023;-94
2023/12/13 04:17:32;;;;;;;3.63;3.42;;;12.50;99.90;;;;;;5095155;28;20040;-95
2023/12/13 04:19:58;;;;;;;3.75;3.55;;;12.60;99.90;;;;;;5084773;28;20036;-93
2023/12/13 04:22:24;;;;;;;3.83;3.63;;;12.30;99.90;;;;;;5079023;28;20040;-93
2023/12/13 04:24:50;;;;;;;3.67;3.47;;;12.20;99.90;;;;;;5078305;28;20039;-93
2023/12/13 04:27:19;;;;;;;3.80;3.60;;;12.60;99.90;;;;;;5095981;28;20553;-94
2023/12/13 04:29:45;;;;;;;3.28;3.08;;;12.60;99.90;;;;;;5077924;28;20063;-93
2023/12/13 04:32:11;;;;;;;3.67;3.47;;;12.40;99.90;;;;;;5079155;28;20493;-93
2023/12/13 04:34:37;;;;;;;3.67;3.47;;;12.40;99.90;;;;;;5076701;28;20072;-93
2023/12/13 04:37:06;;;;;;;3.45;3.25;;;12.10;99.90;;;;;;5076284;28;20100;-93
2023/12/13 04:39:34;;;;;;;4.05;3.85;;;11.60;99.90;;;;;;5078443;28;20076;-94
2023/12/13 04:42:00;;;;;;;3.35;3.15;;;11.60;99.90;;;;;;5077359;28;20124;-94
2023/12/13 04:44:27;;;;;;;3.85;3.65;;;12.60;99.90;;;;;;5075839;28;20068;-93
2023/12/13 04:47:02;;;;;;;3.58;3.38;;;12.20;99.90;;;;;;5077808;28;20469;-92
2023/12/13 04:49:29;;;;;;;3.55;3.35;;;11.70;99.90;;;;;;5071976;28;20080;-93
2023/12/13 04:51:55;;;;;;;3.70;3.50;;;12.50;99.90;;;;;;5077016;28;20043;-93
2023/12/13 04:54:21;;;;;;;3.55;3.35;;;11.60;99.90;;;;;;5074612;28;20048;-92
2023/12/13 04:56:47;;;;;;;3.65;3.45;;;12.70;99.90;;;;;;5076806;28;20054;-92
2023/12/13 04:59:13;;;;;;;3.92;3.72;;;12.50;99.90;;;;;;5074967;28;20036;-91
2023/12/13 05:01:38;;;;;;;3.47;3.28;;;11.70;99.90;;;;;;5074182;28;20400;-94
2023/12/13 05:04:04;;;;;;;3.83;3.63;;;11.90;99.90;;;;;;5076896;28;20134;-92
2023/12/13 05:06:30;;;;;;;3.83;3.63;;;12.60;99.90;;;;;;5076722;28;20051;-93
2023/12/13 05:08:56;;;;;;;3.75;3.55;;;12.00;99.90;;;;;;5086108;28;20127;-93
2023/12/13 05:11:21;;;;;;;3.55;3.35;;;12.50;99.90;;;;;;5076961;28;20035;-93
2023/12/13 05:13:47;;;;;;;4.03;3.83;;;12.50;99.90;;;;;;5075101;28;20599;-94
2023/12/13 05:16:20;;;;;;;3.35;3.15;;;12.40;99.90;;;;;;5080152;28;20546;-94
2023/12/13 05:18:46;;;;;;;3.67;3.47;;;12.20;99.90;;;;;;5075968;28;20046;-93
2023/12/13 05:21:11;;;;;;;3.58;3.38;;;11.70;99.90;;;;;;5076113;28;20040;-93
2023/12/13 05:23:37;;;;;;;3.45;3.25;;;12.50;99.90;;;;;;5073724;28;20127;-94
2023/12/13 05:26:04;;;;;;;3.67;3.47;;;12.00;99.90;;;;;;5091714;28;20331;-94
2023/12/13 05:28:29;;;;;;;4.00;3.80;;;11.70;99.90;;;;;;5076480;28;20119;-94
2023/12/13 05:30:58;;;;;;;3.72;3.53;;;12.20;99.90;;;;;;5076995;28;21384;-94
2023/12/13 05:33:24;;;;;;;3.90;3.70;;;12.50;99.90;;;;;;5075188;28;20051;-94
2023/12/13 05:35:50;;;;;;;3.60;3.40;;;11.80;99.90;;;;;;5089591;28;20047;-94
2023/12/13 05:38:15;;;;;;;3.38;3.17;;;11.80;99.90;;;;;;5072362;28;20031;-94
2023/12/13 05:40:41;;;;;;;3.63;3.42;;;11.80;99.90;;;;;;5069872;28;20055;-93
2023/12/13 05:43:07;;;;;;;3.42;3.22;;;11.80;99.90;;;;;;5090128;28;20051;-94
2023/12/13 05:45:33;;;;;;;3.70;3.50;;;12.50;99.90;;;;;;5074892;28;20546;-94
2023/12/13 05:48:02;;;;;;;3.75;3.55;;;12.20;99.90;;;;;;5076233;28;20043;-93
2023/12/13 05:50:30;;;;;;;3.53;3.33;;;12.40;99.90;;;;;;5089529;28;20042;-94
2023/12/13 05:52:56;;;;;;;3.70;3.50;;;11.90;99.90;;;;;;5071590;28;20047;-92
2023/12/13 05:55:22;;;;;;;3.85;3.65;;;12.40;99.90;;;;;;5090420;28;20050;-94
2023/12/13 05:57:48;;;;;;;3.33;3.13;;;11.70;99.90;;;;;;5073780;28;20393;-94
2023/12/13 06:00:19;;;;;;;3.65;3.45;;;12.60;99.90;;;;;;5073720;28;20138;-94
2023/12/13 06:02:45;;;;;;;3.28;3.08;;;11.60;99.90;;;;;;5091259;28;20039;-94
2023/12/13 06:05:11;;;;;;;3.22;3.03;;;11.80;99.90;;;;;;5077858;28;20044;-94
2023/12/13 06:07:44;;;;;;;3.42;3.22;;;12.50;99.90;;;;;;5072339;28;20077;-94
2023/12/13 06:10:23;;;;;;;3.50;3.30;;;11.80;99.90;;;;;;5071947;28;20522;-95
2023/12/13 06:13:01;;;;;;;3.30;3.10;;;12.50;99.90;;;;;;5072262;28;20496;-93
2023/12/13 06:15:37;;;;;;;3.67;3.47;;;12.20;99.90;;;;;;5073365;28;20128;-94
2023/12/13 06:18:03;;;;;;;3.38;3.17;;;11.80;99.90;;;;;;5071303;28;20092;-95
2023/12/13 06:20:28;;;;;;;3.60;3.40;;;11.70;99.90;;;;;;5070542;28;20717;-94
2023/12/13 06:22:57;;;;;;;3.58;3.38;;;11.80;99.90;;;;;;5071723;28;20062;-94
2023/12/13 06:25:24;;;;;;;3.35;3.15;;;11.80;99.90;;;;;;5074884;28;20039;-94
2023/12/13 06:27:50;;;;;;;3.55;3.35;;;12.40;99.90;;;;;;5072536;28;20047;-93
2023/12/13 06:30:16;;;;;;;3.72;3.53;;;11.90;99.90;;;;;;5076365;28;20032;-93
2023/12/13 06:32:42;;;;;;;3.40;3.20;;;12.10;99.90;;;;;;5072697;28;20036;-94
2023/12/13 06:35:13;;;;;;;3.50;3.30;;;11.80;99.90;;;;;;5076527;28;20048;-93
2023/12/13 06:37:38;;;;;;;3.35;3.15;;;12.50;99.90;;;;;;5073127;28;20043;-93
2023/12/13 06:40:07;;;;;;;3.45;3.25;;;12.60;99.90;;;;;;5073607;28;20127;-94
2023/12/13 06:42:36;;;;;;;3.55;3.35;;;11.80;99.90;;;;;;5074869;28;20051;-94
2023/12/13 06:45:02;;;;;;;3.55;3.35;;;11.80;99.90;;;;;;5090709;28;20412;-93
2023/12/13 06:47:34;;;;;;;3.33;3.13;;;11.70;99.90;;;;;;5074786;28;20596;-94
2023/12/13 06:50:00;;;;;;;3.40;3.20;;;12.10;99.90;;;;;;5091939;28;20083;-94
2023/12/13 06:52:26;;;;;;;3.50;3.30;;;12.30;99.90;;;;;;5090343;28;20082;-94
2023/12/13 06:54:54;;;;;;;3.88;3.67;;;11.90;99.90;;;;;;5073723;28;20039;-94
2023/12/13 06:57:20;;;;;;;3.30;3.10;;;12.10;99.90;;;;;;5072416;28;20071;-93
2023/12/13 06:59:45;;;;;;;3.45;3.25;;;12.10;99.90;;;;;;5100227;28;20275;-94
2023/12/13 07:02:15;;;;;;;3.67;3.47;;;11.60;99.90;;;;;;5089842;28;20423;-93
2023/12/13 07:04:42;;;;;;;3.53;3.33;;;11.70;99.90;;;;;;5094643;28;20061;-93
2023/12/13 07:07:14;;;;;;;3.38;3.17;;;12.40;99.90;;;;;;5096427;28;20036;-95
2023/12/13 07:09:40;;;;;;;3.33;3.13;;;11.60;99.90;;;;;;5096951;28;20024;-94
2023/12/13 07:12:08;;;;;;;3.40;3.20;;;12.40;99.90;;;;;;5097298;28;20028;-94
2023/12/13 07:14:35;;;;;;;3.53;3.33;;;12.50;99.90;;;;;;5099021;28;20051;-92
2023/12/13 07:17:02;;;;;;;3.40;3.20;;;12.40;99.90;;;;;;5110162;28;20044;-93
2023/12/13 07:19:29;;;;;;;3.45;3.25;;;12.50;99.90;;;;;;5096329;28;20040;-92
2023/12/13 07:21:55;;;;;;;3.40;3.20;;;12.30;99.90;;;;;;5078954;28;20052;-94
2023/12/13 07:24:21;;;;;;;3.80;3.60;;;11.70;99.90;;;;;;5075214;28;20118;-94
2023/12/13 07:26:46;;;;;;;3.90;3.70;;;11.70;99.90;;;;;;5078299;28;20045;-92
2023/12/13 07:29:12;;;;;;;3.42;3.22;;;11.90;99.90;;;;;;5079772;28;20495;-92
2023/12/13 07:31:41;;;;;;;3.42;3.22;;;12.40;99.90;;;;;;5076371;28;20097;-93
2023/12/13 07:34:10;;;;;;;3.45;3.25;;;11.60;99.90;;;;;;5094878;28;20126;-93
2023/12/13 07:36:37;;;;;;;3.38;3.17;;;11.80;99.90;;;;;;5077791;28;20473;-92
2023/12/13 07:39:03;;;;;;;3.38;3.17;;;12.60;99.90;;;;;;5094980;28;20056;-93
2023/12/13 07:41:29;;;;;;;3.45;3.25;;;12.10;99.90;;;;;;5076256;28;20035;-95
2023/12/13 07:43:55;;;;;;;3.65;3.45;;;12.40;99.90;;;;;;5075574;28;20539;-94
2023/12/13 07:46:21;;;;;;;4.10;3.90;;;11.80;99.90;;;;;;5077353;28;20036;-94
2023/12/13 07:48:47;;;;;;;3.42;3.22;;;12.00;99.90;;;;;;5072520;28;20040;-93
2023/12/13 07:51:13;;;;;;;3.42;3.22;;;12.10;99.90;;;;;;5076999;28;20043;-92
2023/12/13 07:53:40;;;;;;;3.63;3.42;;;12.00;99.90;;;;;;5094017;28;20039;-94
2023/12/13 07:56:06;;;;;;;3.25;3.05;;;11.70;99.90;;;;;;5075824;28;20047;-94
2023/12/13 07:58:32;;;;;;;3.33;3.13;;;12.40;99.90;;;;;;5076009;28;20054;-92
2023/12/13 08:00:58;;;;;;;3.50;3.30;;;12.00;99.90;;;;;;5075786;28;20048;-93
2023/12/13 08:03:24;;;;;;;3.47;3.28;;;12.20;99.90;;;;;;5075878;28;20053;-94
2023/12/13 08:05:49;;;;;;;3.50;3.30;;;12.60;99.90;;;;;;5074333;28;20050;-93
2023/12/13 08:08:16;;;;;;;3.33;3.13;;;12.60;99.90;;;;;;5093561;28;20043;-92
2023/12/13 08:10:43;;;;;;;3.03;2.83;;;12.50;99.90;;;;;;5069334;28;20052;-91
2023/12/13 08:13:09;;;;;;;3.33;3.13;;;12.50;99.90;;;;;;5091971;28;20056;-92
2023/12/13 08:15:35;;;;;;;3.60;3.40;;;12.00;99.90;;;;;;5072394;28;20048;-91
2023/12/13 08:18:01;;;;;;;3.40;3.20;;;12.50;99.90;;;;;;5076203;28;20588;-91
2023/12/13 08:20:29;;;;;;;3.40;3.20;;;12.70;99.90;;;;;;5089076;28;20050;-94
2023/12/13 08:22:56;;;;;;;3.53;3.33;;;12.00;99.90;;;;;;5091068;28;20056;-94
2023/12/13 08:25:22;;;;;;;3.50;3.30;;;12.80;99.90;;;;;;5072954;28;20032;-93
2023/12/13 08:27:51;;;;;;;3.35;3.15;;;12.80;99.90;;;;;;5079895;28;20047;-94
2023/12/13 08:30:17;;;;;;;3.53;3.33;;;12.00;99.90;;;;;;5097631;28;20047;-93
2023/12/13 08:32:42;;;;;;;3.75;3.55;;;12.30;99.90;;;;;;5093763;28;20039;-93
2023/12/13 08:35:08;;;;;;;3.58;3.38;;;12.90;99.90;;;;;;5075889;28;20043;-93
2023/12/13 08:37:34;;;;;;;3.40;3.20;;;12.70;99.90;;;;;;5076896;28;20039;-93
2023/12/13 08:40:00;;;;;;;3.72;3.53;;;12.70;99.90;;;;;;5090692;28;20036;-94
2023/12/13 08:42:26;;;;;;;3.67;3.47;;;12.90;99.90;;;;;;5077223;28;20123;-93
2023/12/13 08:44:51;;;;;;;3.65;3.45;;;12.60;99.90;;;;;;5093481;28;20045;-93
2023/12/13 08:47:19;;;;;;;3.58;3.38;;;12.90;99.90;;;;;;5074090;28;20040;-91
2023/12/13 08:49:45;;;;;;;4.03;3.80;;;12.20;99.90;;;;;;5089436;28;20081;-92
2023/12/13 08:52:11;;;;;;;4.38;4.13;;;12.00;99.90;;;;;;5072905;28;20035;-91
2023/12/13 08:54:36;;;;;;;4.32;4.10;;;12.50;99.90;;;;;;5094120;28;20047;-93
2023/12/13 08:57:02;;;;;;;3.72;3.53;;;12.40;99.90;;;;;;5072321;28;20040;-92
2023/12/13 08:59:28;;;;;;;3.72;3.53;;;12.20;99.90;;;;;;5076543;28;20036;-93
2023/12/13 09:01:54;;;;;;;3.72;3.53;;;12.50;99.90;;;;;;5070341;28;20052;-93
2023/12/13 09:04:20;;;;;;;3.47;3.28;;;12.80;99.90;;;;;;5074437;28;20055;-93
2023/12/13 09:06:45;;;;;;;3.97;3.78;;;12.20;99.90;;;;;;5082296;28;20135;-93
2023/12/13 09:09:11;;;;;;;4.03;3.83;;;12.90;99.90;;;;;;5076017;28;20067;-93
2023/12/13 09:11:37;;;;;;;4.03;3.83;;;12.30;99.90;;;;;;5090952;28;20051;-93
2023/12/13 09:14:03;;;;;;;3.92;3.72;;;12.70;99.90;;;;;;5092107;28;20103;-91
2023/12/13 09:16:29;;;;;;;4.43;4.13;;;12.20;99.90;;;;;;5073262;28;20130;-93
2023/12/13 09:18:56;;;;;;;3.92;3.72;;;12.10;99.90;;;;;;5074391;28;20044;-93
2023/12/13 09:21:22;;;;;;;3.78;3.58;;;12.90;99.90;;;;;;5074358;28;20044;-91
2023/12/13 09:23:47;;;;;;;3.88;3.67;;;12.70;99.90;;;;;;5075510;28;20079;-94
2023/12/13 09:26:13;;;;;;;3.67;3.47;;;12.80;99.90;;;;;;5069525;28;20075;-90
2023/12/13 09:28:40;;;;;;;3.80;3.60;;;12.60;99.90;;;;;;5090399;28;20121;-92
2023/12/13 09:31:07;;;;;;;4.07;3.85;;;12.40;99.90;;;;;;5073876;28;20035;-94
2023/12/13 09:33:33;;;;;;;4.10;3.88;;;12.60;99.90;;;;;;5088297;28;20396;-93
2023/12/13 09:35:59;;;;;;;4.13;3.88;;;13.00;99.90;;;;;;5088499;28;20046;-93
2023/12/13 09:38:25;;;;;;;4.10;3.88;;;12.40;99.90;;;;;;5072232;28;20043;-92
2023/12/13 09:40:51;;;;;;;4.03;3.83;;;12.60;99.90;;;;;;5087789;28;20043;-92
2023/12/13 09:43:17;;;;;;;4.25;4.00;;;12.60;99.90;;;;;;5071703;28;20046;-92
2023/12/13 09:45:44;;;;;;;4.22;3.97;;;12.90;99.90;;;;;;5085977;28;20047;-91
2023/12/13 09:48:13;;;;;;;4.40;4.13;;;12.70;99.90;;;;;;5090774;28;20123;-93
2023/12/13 09:50:42;;;;;;;4.25;4.00;;;12.60;99.90;;;;;;5074631;28;20035;-93
2023/12/13 09:53:09;;;;;;;4.88;4.57;;;12.70;99.90;;;;;;5092620;28;20040;-90
2023/12/13 09:55:36;;;;;;;5.05;4.75;;;12.90;99.90;;;;;;5075813;28;20401;-90
2023/12/13 09:58:02;;;;;;;4.55;4.25;;;13.10;99.90;;;;;;5074757;28;20040;-90
2023/12/13 10:00:28;;;;;;;5.20;4.90;;;13.20;99.90;;;;;;5076655;28;20035;-93
2023/12/13 10:02:53;;;;;;;5.15;4.85;;;12.60;99.90;;;;;;5073980;28;20044;-92
2023/12/13 10:05:22;;;;;;;4.53;4.22;;;13.10;99.90;;;;;;5070913;28;20044;-93
2023/12/13 10:07:48;;;;;;;4.85;4.55;;;13.20;99.90;;;;;;5070599;28;20504;-93
2023/12/13 10:10:14;;;;;;;4.45;4.15;;;13.10;99.90;;;;;;5071348;28;20090;-95
2023/12/13 10:12:40;;;;;;;4.38;4.10;;;13.40;99.90;;;;;;5075467;28;20051;-94
2023/12/13 10:15:11;;;;;;;4.25;3.97;;;13.40;99.90;;;;;;5076898;28;20468;-92
2023/12/13 10:17:37;;;;;;;4.47;4.18;;;13.40;99.90;;;;;;5073910;28;20074;-94
2023/12/13 10:20:06;;;;;;;5.15;4.85;;;13.40;99.90;;;;;;5074436;28;20036;-93
2023/12/13 10:22:33;;;;;;;4.70;4.40;;;13.10;99.90;;;;;;5074871;28;20035;-93
2023/12/13 10:24:59;;;;;;;4.50;4.20;;;12.90;99.90;;;;;;5092197;28;20055;-93
2023/12/13 10:27:24;;;;;;;4.45;4.15;;;13.40;99.90;;;;;;5072348;28;20047;-89
2023/12/13 10:29:53;;;;;;;4.72;4.43;;;13.20;99.90;;;;;;5089017;28;20047;-89
2023/12/13 10:32:19;;;;;;;4.75;4.45;;;13.30;99.90;;;;;;5091647;28;20039;-93
2023/12/13 10:34:46;;;;;;;4.85;4.55;;;13.10;99.90;;;;;;5077120;28;20088;-93
2023/12/13 10:37:12;;;;;;;4.47;4.18;;;13.10;99.90;;;;;;5075185;28;20083;-94
2023/12/13 10:39:46;;;;;;;4.80;4.50;;;13.20;99.90;;;;;;5077930;28;20180;-94
2023/12/13 10:42:15;;;;;;;;;;;13.50;99.90;;;;;;5080732;28;20078;-93
2023/12/13 10:44:42;;;;;;;4.97;4.68;;;13.30;99.90;;;;;;5078884;28;19927;-92
2023/12/13 10:47:08;;;;;;;4.63;4.32;;;13.30;99.90;;;;;;5096920;28;20043;-92
2023/12/13 10:49:36;;;;;;;4.97;4.68;;;13.50;99.90;;;;;;5093775;28;20043;-93
2023/12/13 10:52:05;;;;;;;5.53;5.22;;;13.40;99.90;;;;;;5076064;28;20036;-93
2023/12/13 10:54:32;;;;;;;4.88;4.57;;;13.30;99.90;;;;;;5094519;28;20043;-93
2023/12/13 10:56:59;;;;;;;5.35;5.05;;;13.50;99.90;;;;;;5079069;28;20373;-93
2023/12/13 10:59:26;;;;;;;5.30;5.00;;;12.90;99.90;;;;;;5078425;28;20040;-93
2023/12/13 11:01:54;;;;;;;5.07;4.78;;;13.30;99.90;;;;;;5096470;28;20109;-92
2023/12/13 11:04:23;;;;;;;5.18;4.88;;;13.10;99.90;;;;;;5075774;28;20044;-91
2023/12/13 11:06:49;;;;;;;4.45;4.15;;;13.30;99.90;;;;;;5096065;28;20039;-93
2023/12/13 11:09:21;;;;;;;4.97;4.68;;;13.30;99.90;;;;;;5094813;28;20404;-93
2023/12/13 11:11:47;;;;;;;5.55;5.22;;;13.20;99.90;;;;;;5091400;28;20078;-93
2023/12/13 11:14:15;;;;;;;5.00;4.70;;;13.20;99.90;;;;;;5078689;28;20043;-93
2023/12/13 11:16:45;;;;;;;5.50;5.20;;;13.50;99.90;;;;;;5077650;28;20551;-92
2023/12/13 11:19:15;;;;;;;5.38;5.07;;;13.20;99.90;;;;;;5095195;28;20077;-92
2023/12/13 11:21:45;;;;;;;5.18;4.88;;;13.40;99.90;;;;;;5088405;28;20126;-93
2023/12/13 11:24:13;;;;;;;5.25;4.95;;;13.40;99.90;;;;;;5078005;28;20048;-91
2023/12/13 11:26:48;;;;;;;4.80;4.50;;;13.30;99.90;;;;;;5094065;28;20504;-93
2023/12/13 11:29:22;;;;;;;4.60;4.30;;;13.30;99.90;;;;;;5079123;28;20040;-93
2023/12/13 11:31:51;;;;;;;5.43;5.13;;;13.30;99.90;;;;;;5075768;28;20044;-93
2023/12/13 11:34:21;;;;;;;4.75;4.45;;;13.20;99.90;;;;;;5090959;28;20048;-93
2023/12/13 11:36:47;;;;;;;5.57;5.25;;;13.70;99.90;;;;;;5077611;28;20044;-92
2023/12/13 11:39:12;;;;;;;5.95;5.60;;;13.40;99.90;;;;;;5090901;28;20489;-94
2023/12/13 11:41:39;;;;;;;6.25;5.85;;;13.20;99.90;;;;;;5075837;28;20054;-91
2023/12/13 11:44:05;;;;;;;5.47;5.15;;;13.30;99.90;;;;;;5078442;28;20054;-93
2023/12/13 11:46:31;;;;;;;5.30;5.00;;;13.20;99.90;;;;;;5078931;28;20044;-93
2023/12/13 11:48:57;;;;;;;4.95;4.65;;;13.50;99.90;;;;;;5074958;28;20036;-94
2023/12/13 11:51:23;;;;;;;4.97;4.68;;;13.60;99.90;;;;;;5077787;28;20077;-93
2023/12/13 11:53:49;;;;;;;4.65;4.35;;;13.70;99.90;;;;;;5080799;28;20489;-91
2023/12/13 11:56:18;;;;;;;5.22;4.93;;;13.50;99.90;;;;;;5082407;28;20493;-93
2023/12/13 11:58:44;;;;;;;5.53;5.20;;;13.50;99.90;;;;;;5076925;28;20043;-93
2023/12/13 12:01:13;;;;;;;4.80;4.50;;;13.50;99.90;;;;;;5095258;28;20213;-93
2023/12/13 12:03:39;;;;;;;5.03;4.72;;;13.60;99.90;;;;;;5091988;28;20044;-93
2023/12/13 12:06:23;;;;;;;4.63;4.32;;;13.70;99.90;;;;;;5095206;28;20047;-93
2023/12/13 12:08:49;;;;;;;5.45;5.15;;;13.80;99.90;;;;;;5068546;28;20092;-93
2023/12/13 12:11:18;;;;;;;4.60;4.30;;;13.70;99.90;;;;;;5077199;28;20166;-92
2023/12/13 12:13:44;;;;;;;4.25;3.97;;;13.60;99.90;;;;;;5074634;28;20129;-93
2023/12/13 12:16:10;;;;;;;4.03;3.83;;;13.90;99.90;;;;;;5093127;28;20073;-92
2023/12/13 12:18:38;;;;;;;4.18;3.97;;;13.90;99.90;;;;;;5074933;28;20043;-92
2023/12/13 12:21:11;;;;;;;4.15;3.95;;;13.80;99.90;;;;;;5075354;28;20516;-92
2023/12/13 12:23:42;;;;;;;3.72;3.53;;;13.90;99.90;;;;;;5076973;28;20044;-92
2023/12/13 12:26:12;;;;;;;3.35;3.15;;;14.00;99.90;;;;;;5076799;28;20090;-93
2023/12/13 12:28:40;;;;;;;3.20;3.00;;;14.00;99.90;;;;;;5091077;28;20051;-92
2023/12/13 12:31:09;;;;;;;3.22;3.03;;;14.20;99.90;;;;;;5076474;28;20043;-93
2023/12/13 12:33:39;;;;;;;3.30;3.10;;;14.20;99.90;;;;;;5077654;28;20126;-93
2023/12/13 12:36:05;;;;;;;3.10;2.90;;;14.10;99.90;;;;;;5070542;28;20051;-93
2023/12/13 12:38:34;;;;;;;3.00;2.80;;;14.30;99.90;;;;;;5072464;28;20046;-92
2023/12/13 12:41:00;;;;;;;3.15;2.95;;;14.10;99.90;;;;;;5075454;28;20043;-92
2023/12/13 12:43:25;;;;;;;3.05;2.85;;;13.90;99.90;;;;;;5072957;28;20036;-91
2023/12/13 12:45:51;;;;;;;2.90;2.75;;;14.00;99.90;;;;;;5090625;28;20163;-92
2023/12/13 12:48:17;;;;;;;2.97;2.78;;;13.90;99.90;;;;;;5092812;28;20088;-94